Time;durP1;ratioP1;P1;durP2;ratioP2;P2;SDS_P1;SDS_P2;PMS_P1;PMS_P2;Temp;Humidity;BMP_temperature;BMP_pressure;BME280_temperature;BME280_humidity;BME280_pressure;Samples;Min_cycle;Max_cycle;Signal;HPM_P1;HPM_P2
2022/11/08 00:01:30;;;;;;;5.97;2.23;;;15.50;99.90;;;;;;7453854;78;26280;-51
2022/11/08 00:21:53;;;;;;;4.17;2.20;;;15.40;99.90;;;;;;7405437;79;26812;-50
2022/11/08 00:31:55;;;;;;;5.97;2.40;;;15.50;99.90;;;;;;7414905;78;26361;-54
2022/11/08 00:41:58;;;;;;;5.03;2.40;;;15.30;99.90;;;;;;7407100;79;26821;-54
2022/11/08 00:52:01;;;;;;;4.50;2.40;;;15.50;99.90;;;;;;7406062;78;26318;-51
2022/11/08 01:02:03;;;;;;;6.17;2.60;;;15.30;99.90;;;;;;7463303;78;26806;-52
2022/11/08 01:12:06;;;;;;;6.27;2.20;;;15.30;99.90;;;;;;7416843;78;26362;-54
2022/11/08 01:22:08;;;;;;;5.13;2.30;;;15.40;99.90;;;;;;7422863;79;26843;-53
2022/11/08 01:32:11;;;;;;;5.27;2.50;;;15.20;99.90;;;;;;7432608;78;26287;-55
2022/11/08 01:42:13;;;;;;;5.87;2.43;;;15.20;99.90;;;;;;7430408;78;26405;-52
2022/11/08 01:52:22;;;;;;;3.93;2.10;;;15.30;99.90;;;;;;7409010;79;26288;-51
2022/11/08 02:02:26;;;;;;;4.57;1.63;;;15.10;99.90;;;;;;7418527;78;26418;-52
2022/11/08 02:12:29;;;;;;;4.10;1.87;;;15.30;99.90;;;;;;7419915;79;26917;-54
2022/11/08 02:22:35;;;;;;;4.13;2.10;;;15.30;99.90;;;;;;7406789;78;26393;-51
2022/11/08 02:32:39;;;;;;;4.43;2.23;;;15.20;99.90;;;;;;7407926;78;26369;-50
2022/11/08 02:42:42;;;;;;;6.13;2.73;;;15.30;99.90;;;;;;7430453;78;26381;-51
2022/11/08 02:52:44;;;;;;;4.13;2.10;;;15.10;99.90;;;;;;7420624;79;26276;-52
2022/11/08 03:02:50;;;;;;;4.07;1.97;;;15.30;99.90;;;;;;7441346;78;26396;-52
2022/11/08 03:13:01;;;;;;;2.43;1.37;;;15.20;99.90;;;;;;7435398;79;26424;-53
2022/11/08 03:23:06;;;;;;;7.03;3.00;;;15.10;99.90;;;;;;7414813;78;26302;-52
2022/11/08 03:33:08;;;;;;;4.97;1.77;;;15.30;99.90;;;;;;7429562;78;26288;-51
2022/11/08 03:43:11;;;;;;;3.60;1.73;;;15.20;99.90;;;;;;7414693;78;26852;-55
2022/11/08 03:53:14;;;;;;;2.40;1.27;;;15.20;99.90;;;;;;7412059;79;26376;-51
2022/11/08 04:03:17;;;;;;;4.53;1.97;;;15.10;99.90;;;;;;7432745;78;27357;-51
2022/11/08 04:23:40;;;;;;;3.93;1.47;;;15.10;99.90;;;;;;7420902;79;26337;-52
2022/11/08 04:33:43;;;;;;;5.10;1.77;;;15.00;99.90;;;;;;7437917;78;26808;-51
2022/11/08 04:43:46;;;;;;;3.70;1.80;;;15.00;99.90;;;;;;7426134;79;26406;-53
2022/11/08 04:53:48;;;;;;;3.93;1.73;;;15.10;99.90;;;;;;7392820;79;26334;-51
2022/11/08 05:03:52;;;;;;;2.73;1.50;;;15.10;99.90;;;;;;7438995;78;26879;-54
2022/11/08 05:13:56;;;;;;;5.70;1.63;;;15.00;99.90;;;;;;7430172;78;26284;-52
2022/11/08 05:23:59;;;;;;;2.63;1.60;;;14.90;99.90;;;;;;7400467;78;26279;-56
2022/11/08 05:34:01;;;;;;;6.33;1.80;;;15.10;99.90;;;;;;7430387;78;26362;-55
2022/11/08 05:44:04;;;;;;;2.87;1.77;;;15.00;99.90;;;;;;7405724;78;26328;-54
2022/11/08 05:54:07;;;;;;;4.30;2.37;;;14.90;99.90;;;;;;7396674;78;27167;-55
2022/11/08 06:04:09;;;;;;;4.30;2.00;;;15.00;99.90;;;;;;7440426;78;26269;-54
2022/11/08 06:14:12;;;;;;;6.47;3.07;;;14.90;99.90;;;;;;7434336;78;26303;-51
2022/11/08 06:24:17;;;;;;;5.20;2.70;;;14.70;99.90;;;;;;7401343;79;26269;-54
2022/11/08 06:34:19;;;;;;;4.53;2.83;;;14.70;99.90;;;;;;7444458;78;26346;-55
2022/11/08 06:44:22;;;;;;;5.37;2.70;;;14.90;99.90;;;;;;7457496;78;26295;-54
2022/11/08 06:54:24;;;;;;;5.37;3.17;;;14.90;99.90;;;;;;7466679;78;26365;-52
2022/11/08 07:04:27;;;;;;;5.17;2.90;;;14.60;99.90;;;;;;7433855;78;26299;-54
2022/11/08 07:14:29;;;;;;;4.27;2.27;;;14.70;99.90;;;;;;7434135;78;26809;-54
2022/11/08 07:24:32;;;;;;;6.83;3.00;;;14.90;99.90;;;;;;7404982;78;26304;-55
2022/11/08 07:34:35;;;;;;;4.60;1.87;;;14.90;99.90;;;;;;7446669;78;26321;-56
2022/11/08 07:44:37;;;;;;;4.90;2.00;;;14.70;99.90;;;;;;7417358;78;26407;-51
2022/11/08 07:54:40;;;;;;;5.43;1.80;;;14.80;99.90;;;;;;7419703;79;26311;-55
2022/11/08 08:04:42;;;;;;;6.20;2.40;;;14.80;99.90;;;;;;7451242;78;26772;-53
2022/11/08 08:14:45;;;;;;;5.00;1.80;;;15.00;99.90;;;;;;7435374;79;26397;-52
2022/11/08 08:24:47;;;;;;;3.10;1.67;;;15.10;99.90;;;;;;7443320;78;26373;-51
2022/11/08 08:34:50;;;;;;;2.93;1.60;;;15.20;99.90;;;;;;7450073;79;26343;-53
2022/11/08 08:44:52;;;;;;;4.27;1.77;;;15.30;99.90;;;;;;7421260;78;26339;-51
2022/11/08 08:54:55;;;;;;;5.50;1.50;;;15.50;99.90;;;;;;7416826;79;27478;-50
2022/11/08 09:04:58;;;;;;;9.17;2.07;;;15.50;99.90;;;;;;7433287;78;26361;-51
2022/11/08 09:15:01;;;;;;;4.93;1.83;;;15.80;99.90;;;;;;7417393;78;27594;-52
2022/11/08 09:25:04;;;;;;;3.53;1.77;;;15.60;99.90;;;;;;7445224;78;27377;-51
2022/11/08 09:35:07;;;;;;;4.50;2.10;;;15.90;99.90;;;;;;7427533;78;26347;-53
2022/11/08 09:45:15;;;;;;;4.87;1.97;;;16.00;99.90;;;;;;7407475;79;26414;-54
2022/11/08 09:55:40;;;;;;;8.53;2.17;;;16.00;99.90;;;;;;7434987;79;26342;-53
2022/11/08 10:05:46;;;;;;;2.37;1.40;;;16.10;99.90;;;;;;7435652;78;26855;-50
2022/11/08 10:16:00;;;;;;;3.70;1.60;;;16.40;99.90;;;;;;7414492;78;26318;-51
2022/11/08 10:26:17;;;;;;;3.57;1.17;;;16.30;99.90;;;;;;7437343;79;26361;-53
2022/11/08 10:36:28;;;;;;;3.07;1.53;;;16.50;99.90;;;;;;7437172;78;26276;-51
2022/11/08 10:46:57;;;;;;;6.83;1.53;;;16.40;99.90;;;;;;7420109;78;27012;-55
2022/11/08 10:56:59;;;;;;;3.83;1.67;;;16.40;99.90;;;;;;7429074;78;26573;-51
2022/11/08 11:07:05;;;;;;;2.57;1.47;;;16.40;99.90;;;;;;7438413;79;26346;-51
2022/11/08 11:17:13;;;;;;;1.47;1.13;;;16.30;99.90;;;;;;7406099;79;26875;-54
2022/11/08 11:27:25;;;;;;;4.43;1.20;;;16.40;99.90;;;;;;7422941;79;26296;-53
2022/11/08 11:37:31;;;;;;;1.93;1.23;;;16.30;99.90;;;;;;7438560;78;26797;-51
2022/11/08 11:47:36;;;;;;;4.43;1.97;;;16.20;99.90;;;;;;7436019;78;26308;-55
2022/11/08 11:58:01;;;;;;;2.87;1.33;;;16.30;99.90;;;;;;7432767;78;26874;-54
2022/11/08 12:08:09;;;;;;;5.27;2.30;;;16.30;99.90;;;;;;7406479;78;26329;-55
2022/11/08 12:18:27;;;;;;;3.80;1.63;;;16.40;99.90;;;;;;7417605;78;26302;-52
2022/11/08 12:28:55;;;;;;;1.93;1.40;;;16.40;99.90;;;;;;7415930;78;26303;-55
2022/11/08 12:39:24;;;;;;;3.10;1.70;;;16.40;99.90;;;;;;7422078;78;26409;-54
2022/11/08 12:49:47;;;;;;;3.87;1.97;;;16.30;99.90;;;;;;7410490;79;26407;-51
2022/11/08 12:59:59;;;;;;;5.57;1.47;;;16.30;99.90;;;;;;7453837;78;26316;-54
2022/11/08 13:10:07;;;;;;;5.20;1.70;;;16.40;99.90;;;;;;7443071;78;27129;-53
2022/11/08 13:20:12;;;;;;;3.63;1.23;;;16.40;99.90;;;;;;7402288;79;26377;-51
2022/11/08 13:30:18;;;;;;;3.57;1.53;;;16.20;99.90;;;;;;7428573;78;26319;-53
2022/11/08 13:40:32;;;;;;;2.73;1.50;;;16.30;99.90;;;;;;7432626;78;26657;-51
2022/11/08 13:50:55;;;;;;;2.17;1.37;;;16.40;99.90;;;;;;7419861;78;26364;-52
2022/11/08 14:00:58;;;;;;;4.40;1.33;;;16.30;99.90;;;;;;7449115;78;26303;-51
2022/11/08 14:11:21;;;;;;;4.30;1.67;;;16.40;99.90;;;;;;7414160;78;26340;-53
2022/11/08 14:21:23;;;;;;;3.03;1.50;;;16.40;99.90;;;;;;7419441;78;26414;-52
2022/11/08 14:31:31;;;;;;;3.00;1.77;;;16.20;99.90;;;;;;7414721;78;26930;-50
2022/11/08 14:41:34;;;;;;;2.73;1.80;;;16.30;99.90;;;;;;7398812;79;26328;-53
2022/11/08 14:51:36;;;;;;;3.27;1.60;;;16.20;99.90;;;;;;7416945;79;26356;-55
2022/11/08 15:01:41;;;;;;;2.97;1.73;;;16.20;99.90;;;;;;7429418;78;26353;-50
2022/11/08 15:11:46;;;;;;;3.33;1.70;;;16.30;99.90;;;;;;7422053;78;26810;-52
2022/11/08 15:21:49;;;;;;;2.90;1.67;;;16.30;99.90;;;;;;7445994;78;26280;-52
2022/11/08 15:31:56;;;;;;;4.07;1.80;;;16.30;99.90;;;;;;7420910;78;26377;-53
2022/11/08 15:42:04;;;;;;;3.87;1.70;;;16.30;99.90;;;;;;7415383;79;26287;-51
2022/11/08 15:52:06;;;;;;;7.63;1.97;;;16.30;99.90;;;;;;7413253;79;26331;-49
2022/11/08 16:02:12;;;;;;;6.30;2.10;;;16.20;99.90;;;;;;7453067;78;26361;-50
2022/11/08 16:12:16;;;;;;;2.97;1.70;;;16.20;99.90;;;;;;7440759;79;26866;-53
2022/11/08 16:22:18;;;;;;;8.63;1.60;;;16.20;99.90;;;;;;7421085;79;26334;-56
2022/11/08 16:32:21;;;;;;;3.27;1.80;;;16.20;99.90;;;;;;7428219;78;26365;-54
2022/11/08 16:42:23;;;;;;;2.13;1.60;;;16.30;99.90;;;;;;7448452;78;26927;-53
2022/11/08 16:52:26;;;;;;;4.43;1.90;;;16.20;99.90;;;;;;7442892;79;26412;-51
2022/11/08 17:02:31;;;;;;;2.10;1.27;;;16.20;99.90;;;;;;7434785;78;26359;-54
2022/11/08 17:12:34;;;;;;;1.53;1.27;;;16.10;99.90;;;;;;7407936;78;26367;-55
2022/11/08 17:22:37;;;;;;;4.27;1.87;;;16.10;99.90;;;;;;7442366;78;27295;-52
2022/11/08 17:32:40;;;;;;;2.87;1.67;;;16.10;99.90;;;;;;7422131;78;26409;-53
2022/11/08 17:42:44;;;;;;;2.23;1.40;;;16.10;99.90;;;;;;7394345;79;26362;-53
2022/11/08 17:52:46;;;;;;;1.97;1.43;;;16.20;99.90;;;;;;7416485;78;26831;-52
2022/11/08 18:02:49;;;;;;;2.47;1.57;;;16.20;99.90;;;;;;7440721;78;26408;-55
2022/11/08 18:12:51;;;;;;;3.87;1.60;;;16.20;99.90;;;;;;7411798;78;26415;-52
2022/11/08 18:22:54;;;;;;;5.47;1.90;;;16.20;99.90;;;;;;7420126;78;26347;-54
2022/11/08 18:32:56;;;;;;;2.73;1.47;;;16.10;99.90;;;;;;7429097;79;26340;-51
2022/11/08 18:42:59;;;;;;;3.53;1.90;;;16.00;99.90;;;;;;7450624;78;26404;-52
2022/11/08 18:53:04;;;;;;;3.37;2.23;;;16.10;99.90;;;;;;7450464;78;26861;-53
2022/11/08 19:03:05;;;;;;;3.63;2.10;;;16.00;99.90;;;;;;7467312;78;26805;-54
2022/11/08 19:13:08;;;;;;;3.63;1.97;;;16.10;99.90;;;;;;7451180;78;26345;-54
2022/11/08 19:23:10;;;;;;;3.03;1.87;;;16.10;99.90;;;;;;7454378;78;26315;-55
2022/11/08 19:33:13;;;;;;;2.43;1.53;;;16.10;99.90;;;;;;7456358;78;26652;-53
2022/11/08 19:43:16;;;;;;;4.47;2.40;;;16.20;99.90;;;;;;7455495;78;26323;-52
2022/11/08 19:53:19;;;;;;;6.47;2.20;;;16.20;99.90;;;;;;7387938;79;26296;-53
2022/11/08 20:03:21;;;;;;;7.20;2.03;;;16.20;99.90;;;;;;7421627;78;26318;-55
2022/11/08 20:13:24;;;;;;;8.20;2.93;;;16.20;99.90;;;;;;7443601;78;26742;-54
2022/11/08 20:23:28;;;;;;;5.63;2.50;;;16.20;99.90;;;;;;7419149;78;26801;-55
2022/11/08 20:33:35;;;;;;;4.57;2.70;;;16.10;99.90;;;;;;7426996;78;26304;-54
2022/11/08 20:43:42;;;;;;;7.13;2.53;;;16.10;99.90;;;;;;7414896;79;26327;-55
2022/11/08 20:53:44;;;;;;;4.53;2.20;;;16.10;99.90;;;;;;7416721;78;26324;-55
2022/11/08 21:03:47;;;;;;;7.03;2.50;;;16.10;99.90;;;;;;7457721;78;26452;-52
2022/11/08 21:13:50;;;;;;;8.07;2.83;;;16.20;99.90;;;;;;7455304;78;26720;-53
2022/11/08 21:23:53;;;;;;;6.30;2.37;;;16.00;99.90;;;;;;7419616;78;26326;-56
2022/11/08 21:33:56;;;;;;;12.37;4.93;;;16.10;99.90;;;;;;7461454;79;26975;-52
2022/11/08 21:43:58;;;;;;;4.40;2.73;;;16.30;99.90;;;;;;7447102;79;26850;-53
2022/11/08 21:54:01;;;;;;;7.30;3.57;;;16.20;99.90;;;;;;7404099;79;26770;-55
2022/11/08 22:04:03;;;;;;;5.87;3.57;;;16.20;99.90;;;;;;7435814;78;26326;-54
2022/11/08 22:14:06;;;;;;;8.63;3.37;;;16.30;99.90;;;;;;7404709;78;26397;-54
2022/11/08 22:24:15;;;;;;;7.13;3.97;;;16.20;99.90;;;;;;7386835;78;26799;-54
2022/11/08 22:34:18;;;;;;;8.40;4.23;;;16.20;99.90;;;;;;7427267;78;26291;-52
2022/11/08 22:44:20;;;;;;;9.93;4.50;;;16.20;99.90;;;;;;7408302;78;26303;-52
2022/11/08 22:54:23;;;;;;;9.43;4.30;;;16.20;99.90;;;;;;7402930;78;26389;-51
2022/11/08 23:04:25;;;;;;;10.57;4.87;;;16.10;99.90;;;;;;7466899;78;26786;-56
2022/11/08 23:24:48;;;;;;;12.37;4.93;;;16.20;99.90;;;;;;7470856;78;26895;-53
2022/11/08 23:34:51;;;;;;;9.47;5.03;;;16.00;99.90;;;;;;7478488;78;26280;-56
2022/11/08 23:44:53;;;;;;;10.17;5.10;;;16.20;99.90;;;;;;7416674;78;26334;-53
2022/11/08 23:54:56;;;;;;;7.93;4.17;;;16.10;99.90;;;;;;7420032;79;26425;-51
